Time;durP1;ratioP1;P1;durP2;ratioP2;P2;SDS_P1;SDS_P2;PMS_P1;PMS_P2;Temp;Humidity;BMP_temperature;BMP_pressure;BME280_temperature;BME280_humidity;BME280_pressure;Samples;Min_cycle;Max_cycle;Signal;HPM_P1;HPM_P2
2021/09/08 00:06:05;;;;;;;12.40;8.90;;;;;;;11.44;65.61;100251.59;470911;1193;141538;-58
2021/09/08 00:16:10;;;;;;;11.00;8.50;;;;;;;11.14;66.35;100256.45;461774;1195;140341;-57
2021/09/08 00:26:13;;;;;;;13.10;8.80;;;;;;;11.05;67.05;100264.25;471400;1190;142609;-57
2021/09/08 00:36:17;;;;;;;12.10;9.60;;;;;;;11.03;67.03;100269.61;472720;1194;142263;-58
2021/09/08 00:46:20;;;;;;;12.90;8.20;;;;;;;10.92;67.26;100269.00;472718;1194;142698;-58
2021/09/08 00:56:25;;;;;;;12.80;8.30;;;;;;;10.85;67.49;100263.45;471940;1194;145599;-58
2021/09/08 01:06:28;;;;;;;13.70;8.50;;;;;;;10.74;67.66;100274.70;472845;1194;142572;-58
2021/09/08 01:16:31;;;;;;;9.80;8.80;;;;;;;10.62;67.90;100277.60;465721;1194;141544;-57
2021/09/08 01:26:36;;;;;;;14.60;9.60;;;;;;;10.38;68.35;100277.07;463005;1194;145955;-58
2021/09/08 01:36:40;;;;;;;11.80;8.90;;;;;;;10.27;68.71;100268.71;472724;1194;142509;-57
2021/09/08 01:46:44;;;;;;;13.20;9.60;;;;;;;10.19;68.91;100271.95;472285;1194;142601;-57
2021/09/08 01:56:47;;;;;;;14.20;9.30;;;;;;;10.22;69.22;100266.33;472635;1194;207768;-57
2021/09/08 02:06:52;;;;;;;12.80;9.00;;;;;;;10.20;69.16;100265.23;472897;1190;142437;-57
2021/09/08 02:16:55;;;;;;;12.60;9.90;;;;;;;10.16;69.10;100271.54;471932;1194;141734;-57
2021/09/08 02:26:58;;;;;;;19.10;11.40;;;;;;;10.05;69.14;100266.48;472687;1194;142014;-58
2021/09/08 02:37:01;;;;;;;13.10;9.70;;;;;;;9.87;69.40;100256.56;472675;1193;141424;-57
2021/09/08 02:47:05;;;;;;;14.10;10.60;;;;;;;9.74;69.86;100263.14;471950;1194;163802;-57
2021/09/08 02:57:08;;;;;;;20.10;10.00;;;;;;;9.72;70.11;100257.14;472768;1194;142007;-57
2021/09/08 03:07:11;;;;;;;19.90;11.40;;;;;;;9.76;70.00;100262.20;472663;1194;142328;-58
2021/09/08 03:17:14;;;;;;;19.60;11.00;;;;;;;9.84;70.20;100255.14;471987;1194;141435;-58
2021/09/08 03:27:18;;;;;;;14.10;10.10;;;;;;;9.81;70.12;100250.39;472794;1194;142216;-57
2021/09/08 03:37:22;;;;;;;14.50;10.50;;;;;;;9.62;70.16;100257.12;472736;1194;143770;-57
2021/09/08 03:47:27;;;;;;;22.20;11.50;;;;;;;9.50;70.63;100265.02;467043;1194;146216;-57
2021/09/08 03:57:31;;;;;;;15.60;11.50;;;;;;;9.49;71.06;100268.02;472647;1194;143537;-57
2021/09/08 04:07:34;;;;;;;22.90;12.10;;;;;;;9.61;71.74;100271.28;472860;1190;142750;-58
2021/09/08 04:17:37;;;;;;;17.40;11.30;;;;;;;9.83;72.52;100272.00;460840;1194;142768;-57
2021/09/08 04:27:41;;;;;;;23.30;13.00;;;;;;;10.10;72.20;100275.02;469167;1193;141866;-57
2021/09/08 04:37:44;;;;;;;31.40;13.30;;;;;;;10.33;71.66;100277.15;472072;1194;165977;-58
2021/09/08 04:47:48;;;;;;;20.80;14.90;;;;;;;10.72;70.95;100270.41;472653;1194;142198;-58
2021/09/08 04:57:51;;;;;;;22.80;13.40;;;;;;;11.11;70.87;100267.45;472881;1191;143241;-58
2021/09/08 05:07:54;;;;;;;24.80;13.30;;;;;;;11.92;69.99;100271.33;472258;1183;142142;-58
2021/09/08 05:17:58;;;;;;;19.30;14.10;;;;;;;13.25;69.41;100273.31;457275;1194;142636;-57
2021/09/08 05:28:02;;;;;;;36.30;14.90;;;;;;;16.04;66.34;100267.48;470999;1194;142618;-59
2021/09/08 05:38:05;;;;;;;24.70;13.30;;;;;;;21.49;60.39;100269.46;472125;1183;164359;-59
2021/09/08 05:48:09;;;;;;;20.70;13.10;;;;;;;26.76;52.08;100267.34;472859;1194;141307;-59
2021/09/08 05:58:12;;;;;;;24.60;13.70;;;;;;;30.11;45.55;100261.66;472909;1194;141426;-59
2021/09/08 06:08:15;;;;;;;20.60;13.20;;;;;;;32.94;40.33;100256.20;464240;1194;142148;-58
2021/09/08 06:18:20;;;;;;;19.30;14.20;;;;;;;35.38;35.81;100252.24;472835;1193;141255;-59
2021/09/08 06:28:24;;;;;;;24.90;15.50;;;;;;;37.48;32.10;100252.88;472981;1194;143157;-59
2021/09/08 06:38:27;;;;;;;18.50;16.40;;;;;;;39.50;29.42;100249.99;472356;1190;142976;-59
2021/09/08 06:48:31;;;;;;;17.20;15.50;;;;;;;40.90;26.73;100256.76;472808;1194;142970;-59
2021/09/08 06:58:35;;;;;;;15.90;14.20;;;;;;;41.92;25.18;100257.51;472885;1194;145678;-61
2021/09/08 07:08:38;;;;;;;17.30;14.80;;;;;;;43.88;23.34;100259.05;468926;1194;141810;-65
2021/09/08 07:18:42;;;;;;;13.80;12.20;;;;;;;46.14;21.43;100257.10;472906;1192;141521;-65
2021/09/08 07:28:46;;;;;;;13.80;12.40;;;;;;;47.44;19.83;100255.65;472185;1194;198576;-65
2021/09/08 07:38:50;;;;;;;13.20;11.90;;;;;;;48.72;18.39;100257.94;472851;1194;141046;-63
2021/09/08 07:48:53;;;;;;;13.50;12.10;;;;;;;49.33;17.25;100257.06;472846;1194;141808;-68
2021/09/08 07:58:56;;;;;;;19.00;12.80;;;;;;;49.62;16.53;100261.53;472125;1194;144690;-65
2021/09/08 08:08:59;;;;;;;16.40;12.50;;;;;;;50.25;15.86;100259.67;472943;1194;143283;-67
2021/09/08 08:19:03;;;;;;;12.30;11.00;;;;;;;50.94;15.57;100265.80;473070;1182;141690;-65
2021/09/08 08:29:06;;;;;;;11.60;10.70;;;;;;;51.27;14.66;100269.24;472063;1194;142238;-65
2021/09/08 08:39:10;;;;;;;13.50;9.90;;;;;;;49.98;14.78;100268.38;472770;1194;142401;-61
2021/09/08 08:49:13;;;;;;;14.40;11.40;;;;;;;42.91;17.78;100257.91;473146;1191;140947;-69
2021/09/08 08:59:17;;;;;;;12.40;11.10;;;;;;;37.40;21.52;100254.67;472100;1194;141996;-59
2021/09/08 09:09:21;;;;;;;11.10;10.10;;;;;;;34.40;24.47;100259.51;472897;1194;140885;-62
2021/09/08 09:19:24;;;;;;;9.70;8.70;;;;;;;32.89;26.31;100262.33;456855;1194;10003191;-63
2021/09/08 09:29:28;;;;;;;11.50;9.20;;;;;;;31.41;27.92;100263.66;467101;1194;141345;-58
2021/09/08 09:39:33;;;;;;;9.70;8.70;;;;;;;30.73;28.75;100256.13;472756;1193;141609;-59
2021/09/08 09:49:37;;;;;;;11.00;10.00;;;;;;;29.92;29.65;100254.22;472679;1194;141560;-57
2021/09/08 09:59:41;;;;;;;17.00;9.70;;;;;;;29.08;30.41;100245.33;471722;1194;142418;-57
2021/09/08 10:09:49;;;;;;;16.00;10.50;;;;;;;28.60;31.54;100239.06;472518;1194;142127;-59
2021/09/08 10:20:03;;;;;;;10.90;9.00;;;;;;;27.87;32.34;100232.82;469099;1195;142370;-57
2021/09/08 10:30:10;;;;;;;11.80;10.20;;;;;;;27.22;33.30;100224.86;462121;1191;145691;-62
2021/09/08 10:40:14;;;;;;;;;;;;;;;26.84;33.90;100222.70;472610;1194;141527;-61
2021/09/08 10:50:41;;;;;;;9.30;8.20;;;;;;;26.49;34.43;100219.76;472066;1195;127517;-61
2021/09/08 11:00:50;;;;;;;12.00;9.80;;;;;;;26.04;34.84;100214.80;470254;1194;140843;-61
2021/09/08 11:11:07;;;;;;;10.30;8.40;;;;;;;25.74;35.23;100206.89;472220;1191;141441;-60
2021/09/08 11:21:10;;;;;;;10.10;7.90;;;;;;;25.62;35.82;100198.94;472988;1192;142176;-61
2021/09/08 11:31:16;;;;;;;10.80;8.00;;;;;;;25.34;35.99;100192.55;466190;1194;143365;-60
2021/09/08 11:41:19;;;;;;;10.50;8.30;;;;;;;25.23;36.27;100189.52;472039;1194;140915;-61
2021/09/08 11:51:24;;;;;;;11.10;9.40;;;;;;;25.14;36.40;100181.95;463863;1194;141279;-60
2021/09/08 12:01:33;;;;;;;9.80;8.00;;;;;;;25.00;36.30;100168.94;470691;1193;141934;-62
2021/09/08 12:11:39;;;;;;;9.20;8.10;;;;;;;24.92;37.03;100163.35;455519;1196;140166;-61
2021/09/08 12:21:43;;;;;;;9.70;8.10;;;;;;;24.90;37.68;100156.21;472808;1194;140756;-62
2021/09/08 12:31:48;;;;;;;8.10;7.30;;;;;;;24.88;37.66;100155.05;472010;1194;140927;-61
2021/09/08 12:41:59;;;;;;;12.00;8.10;;;;;;;24.77;37.53;100147.52;472877;1194;142320;-62
2021/09/08 12:52:06;;;;;;;8.80;7.70;;;;;;;24.72;38.06;100138.11;473056;1191;140650;-62
2021/09/08 13:02:10;;;;;;;9.70;8.70;;;;;;;24.74;38.59;100128.67;472093;1194;197882;-62
2021/09/08 13:12:14;;;;;;;13.20;8.10;;;;;;;24.71;38.56;100107.61;472777;1194;140779;-62
2021/09/08 13:22:18;;;;;;;13.10;8.30;;;;;;;24.71;38.88;100098.42;472905;1194;141159;-61
2021/09/08 13:32:22;;;;;;;9.10;8.20;;;;;;;24.73;39.24;100082.51;471941;1194;142814;-60
2021/09/08 13:42:25;;;;;;;11.00;8.90;;;;;;;24.76;39.05;100071.55;472912;1194;141359;-63
2021/09/08 13:52:28;;;;;;;10.80;8.20;;;;;;;24.73;38.93;100060.69;472831;1194;141621;-62
2021/09/08 14:02:32;;;;;;;8.60;7.80;;;;;;;24.67;39.33;100054.71;471882;1194;140951;-68
2021/09/08 14:12:36;;;;;;;8.90;8.00;;;;;;;24.62;39.35;100044.59;472812;1194;141186;-62
2021/09/08 14:22:41;;;;;;;12.00;8.20;;;;;;;24.64;39.35;100038.43;472894;1182;142195;-62
2021/09/08 14:32:44;;;;;;;9.90;7.30;;;;;;;24.59;38.87;100028.95;468389;1194;142266;-63
2021/09/08 14:42:48;;;;;;;8.50;7.20;;;;;;;24.52;38.56;100020.67;472006;1194;141611;-64
2021/09/08 14:52:51;;;;;;;15.60;7.40;;;;;;;24.40;37.92;100020.46;464974;1194;142748;-65
2021/09/08 15:02:54;;;;;;;7.60;6.40;;;;;;;24.25;38.12;100020.03;465149;1194;142165;-66
2021/09/08 15:12:58;;;;;;;12.90;6.80;;;;;;;24.15;38.48;100012.00;472781;1194;141759;-62
2021/09/08 15:23:01;;;;;;;14.00;8.50;;;;;;;23.98;38.77;99998.30;471953;1194;141233;-60
2021/09/08 15:33:05;;;;;;;7.70;6.70;;;;;;;23.77;38.48;99985.21;466549;1194;141426;-58
2021/09/08 15:43:09;;;;;;;8.10;7.20;;;;;;;23.58;38.37;99984.45;469699;1194;140966;-59
2021/09/08 15:53:12;;;;;;;8.00;6.60;;;;;;;23.39;38.80;99981.17;472042;1184;183683;-60
2021/09/08 16:03:16;;;;;;;11.70;7.40;;;;;;;23.20;39.25;99979.17;472407;1194;141853;-62
2021/09/08 16:13:19;;;;;;;12.20;8.00;;;;;;;22.98;39.90;99970.59;469191;1194;141272;-61
2021/09/08 16:23:23;;;;;;;10.50;6.90;;;;;;;22.70;40.74;99963.59;466472;1182;141282;-60
2021/09/08 16:33:26;;;;;;;16.10;7.50;;;;;;;22.35;41.96;99958.59;472398;1194;140934;-61
2021/09/08 16:43:30;;;;;;;19.40;9.20;;;;;;;21.94;43.34;99951.31;465173;1194;141406;-62
2021/09/08 16:53:33;;;;;;;14.90;9.30;;;;;;;21.51;44.48;99948.45;455937;1194;20002703;-64
2021/09/08 17:03:36;;;;;;;17.70;8.90;;;;;;;21.07;45.83;99948.55;469531;1194;141903;-62
2021/09/08 17:13:40;;;;;;;22.80;10.10;;;;;;;20.59;48.43;99947.04;461189;1194;140537;-64
2021/09/08 17:23:43;;;;;;;16.40;10.70;;;;;;;19.99;50.76;99956.61;467135;1194;140978;-60
2021/09/08 17:33:46;;;;;;;25.50;14.00;;;;;;;19.37;52.45;99962.52;465151;1194;140890;-61
2021/09/08 17:43:51;;;;;;;12.90;10.80;;;;;;;18.79;54.52;99964.17;464102;1194;141898;-62
2021/09/08 17:53:54;;;;;;;12.60;9.50;;;;;;;18.25;56.02;99970.60;472342;1194;141022;-61
2021/09/08 18:03:57;;;;;;;17.40;12.70;;;;;;;17.89;57.29;99975.88;472327;1194;141714;-59
2021/09/08 18:14:02;;;;;;;19.10;14.70;;;;;;;17.67;58.13;99980.11;471700;1194;144335;-61
2021/09/08 18:24:06;;;;;;;27.70;17.60;;;;;;;17.47;58.72;99979.92;472729;1193;142269;-62
2021/09/08 18:34:09;;;;;;;29.80;20.00;;;;;;;17.17;59.32;99978.91;472521;1194;141394;-61
2021/09/08 18:44:13;;;;;;;30.30;19.40;;;;;;;16.84;59.89;99983.83;472201;1190;141199;-62
2021/09/08 18:54:16;;;;;;;36.20;21.90;;;;;;;16.49;60.57;99982.44;472466;1194;142176;-62
2021/09/08 19:04:21;;;;;;;29.20;19.50;;;;;;;16.25;61.16;99985.10;472722;1194;141317;-62
2021/09/08 19:14:24;;;;;;;24.10;17.30;;;;;;;16.09;61.39;99979.67;471884;1194;141850;-63
2021/09/08 19:24:27;;;;;;;30.30;18.00;;;;;;;15.96;61.34;99977.69;472996;1183;143457;-64
2021/09/08 19:34:31;;;;;;;17.30;13.70;;;;;;;15.86;61.82;99977.94;459851;1194;142267;-61
2021/09/08 19:44:38;;;;;;;19.90;14.60;;;;;;;15.68;62.01;99972.30;471944;1194;141959;-60
2021/09/08 19:54:42;;;;;;;22.00;14.70;;;;;;;15.42;62.46;99975.05;472757;1194;141446;-58
2021/09/08 20:04:45;;;;;;;16.20;13.50;;;;;;;15.12;63.10;99973.95;469815;1194;142238;-55
2021/09/08 20:14:50;;;;;;;24.20;14.60;;;;;;;14.96;63.55;99977.49;471068;1194;142776;-56
2021/09/08 20:24:54;;;;;;;24.90;14.10;;;;;;;14.91;63.84;99975.92;472325;1194;142149;-55
2021/09/08 20:34:58;;;;;;;21.30;14.40;;;;;;;14.81;64.13;99970.34;472178;1190;142207;-57
2021/09/08 20:45:01;;;;;;;19.90;16.00;;;;;;;14.64;64.17;99969.97;466062;1194;141951;-57
2021/09/08 20:55:07;;;;;;;18.70;13.80;;;;;;;14.41;64.62;99967.55;462835;1191;141576;-56
2021/09/08 21:05:10;;;;;;;20.90;14.30;;;;;;;14.12;65.07;99958.44;469473;1194;141917;-58
2021/09/08 21:15:13;;;;;;;32.30;15.90;;;;;;;13.94;65.52;99962.77;464439;1194;142488;-58
2021/09/08 21:25:19;;;;;;;26.50;14.30;;;;;;;13.82;65.94;99960.95;458631;1194;141349;-60
2021/09/08 21:35:23;;;;;;;23.20;12.90;;;;;;;13.68;66.39;99959.27;466121;1183;142866;-57
2021/09/08 21:45:27;;;;;;;55.20;19.00;;;;;;;13.63;66.86;99960.37;465029;1194;146253;-58
2021/09/08 21:55:31;;;;;;;17.50;13.80;;;;;;;13.57;67.12;99948.48;469475;1194;142255;-57
2021/09/08 22:05:35;;;;;;;20.20;13.90;;;;;;;13.44;66.79;99947.02;463259;1194;141889;-58
2021/09/08 22:15:38;;;;;;;24.40;14.10;;;;;;;13.27;66.98;99948.02;472376;1194;142146;-58
2021/09/08 22:25:42;;;;;;;22.10;13.50;;;;;;;13.17;67.31;99948.54;464650;1194;10001428;-58
2021/09/08 22:35:45;;;;;;;21.10;15.50;;;;;;;13.15;67.47;99952.77;472744;1194;142244;-58
2021/09/08 22:45:49;;;;;;;20.30;16.50;;;;;;;13.06;67.47;99948.80;472918;1194;196822;-59
2021/09/08 22:55:52;;;;;;;20.30;16.70;;;;;;;12.91;67.78;99949.06;472141;1194;141760;-59
2021/09/08 23:05:55;;;;;;;24.70;18.50;;;;;;;12.82;68.16;99950.77;472853;1193;141782;-59
2021/09/08 23:15:59;;;;;;;20.20;17.00;;;;;;;12.82;68.37;99951.83;473059;1191;142502;-59
2021/09/08 23:26:02;;;;;;;25.20;19.50;;;;;;;12.86;68.82;99949.79;472035;1194;142172;-59
2021/09/08 23:36:05;;;;;;;25.00;18.60;;;;;;;12.90;68.98;99945.13;472745;1194;142979;-59
2021/09/08 23:46:09;;;;;;;27.30;19.20;;;;;;;12.90;68.99;99939.69;472889;1191;142465;-62
2021/09/08 23:56:12;;;;;;;20.40;17.20;;;;;;;12.82;68.96;99933.17;472026;1193;143133;-61
